Time;durP1;ratioP1;P1;durP2;ratioP2;P2;SDS_P1;SDS_P2;PMS_P1;PMS_P2;Temp;Humidity;BMP_temperature;BMP_pressure;BME280_temperature;BME280_humidity;BME280_pressure;Samples;Min_cycle;Max_cycle;Signal;HPM_P1;HPM_P2
2022/07/24 00:00:03;;;;;;;0.10;0.10;;;;;;;22.58;54.55;101579.97;5113778;28;20040;-39
2022/07/24 00:02:29;;;;;;;0.10;0.10;;;;;;;22.57;54.61;101569.97;5112069;28;20075;-39
2022/07/24 00:04:56;;;;;;;0.10;0.10;;;;;;;22.58;54.72;101582.72;5111512;28;20043;-39
2022/07/24 00:07:22;;;;;;;0.10;0.10;;;;;;;22.58;54.51;101579.13;5113132;28;20488;-37
2022/07/24 00:09:48;;;;;;;0.10;0.10;;;;;;;22.57;54.39;101572.75;5114971;28;20064;-37
2022/07/24 00:12:13;;;;;;;0.10;0.10;;;;;;;22.58;54.51;101573.59;5114294;28;20061;-37
2022/07/24 00:14:39;;;;;;;0.10;0.10;;;;;;;22.59;54.57;101572.50;5113292;28;20043;-37
2022/07/24 00:17:05;;;;;;;0.10;0.10;;;;;;;22.58;54.46;101568.84;5109499;28;20047;-37
2022/07/24 00:19:30;;;;;;;0.20;0.20;;;;;;;22.59;54.39;101569.72;5115241;28;20047;-39
2022/07/24 00:21:57;;;;;;;0.20;0.20;;;;;;;22.57;54.48;101564.44;5111979;28;20047;-39
2022/07/24 00:24:22;;;;;;;0.10;0.10;;;;;;;22.58;54.51;101568.03;5111899;28;20078;-39
2022/07/24 00:26:48;;;;;;;0.10;0.10;;;;;;;22.59;54.55;101572.50;5117005;28;20050;-40
2022/07/24 00:29:14;;;;;;;0.10;0.10;;;;;;;22.58;54.58;101566.06;5114740;28;20052;-39
2022/07/24 00:31:39;;;;;;;0.20;0.20;;;;;;;22.58;54.41;101565.25;5111746;28;20047;-39
2022/07/24 00:34:05;;;;;;;0.10;0.10;;;;;;;22.58;54.48;101565.25;5111159;28;20085;-37
2022/07/24 00:36:31;;;;;;;0.30;0.30;;;;;;;22.58;54.60;101568.03;5111362;28;20050;-39
2022/07/24 00:38:56;;;;;;;0.30;0.30;;;;;;;22.58;54.52;101556.94;5109970;28;20051;-38
2022/07/24 00:41:22;;;;;;;0.10;0.10;;;;;;;22.57;54.39;101561.66;5113834;27;20081;-38
2022/07/24 00:44:06;;;;;;;0.20;0.20;;;;;;;22.58;54.51;101565.25;5110626;28;20527;-38
2022/07/24 00:46:35;;;;;;;0.10;0.10;;;;;;;22.58;54.46;101556.94;5096781;28;20446;-38
2022/07/24 00:49:04;;;;;;;0.10;0.10;;;;;;;22.58;54.70;101551.38;5118734;28;20044;-37
2022/07/24 00:51:30;;;;;;;0.13;0.13;;;;;;;22.58;54.44;101562.47;5097861;28;20051;-38
2022/07/24 00:53:56;;;;;;;0.20;0.20;;;;;;;22.58;54.52;101562.47;5117072;28;20087;-38
2022/07/24 00:56:22;;;;;;;0.20;0.20;;;;;;;22.58;54.53;101566.06;5120011;28;20046;-39
2022/07/24 00:58:48;;;;;;;0.20;0.20;;;;;;;22.58;54.54;101565.25;5112826;28;20092;-37
2022/07/24 01:01:14;;;;;;;0.20;0.20;;;;;;;22.57;54.46;101564.44;5110773;28;20458;-38
2022/07/24 01:03:40;;;;;;;0.20;0.20;;;;;;;22.58;54.42;101573.59;5093162;28;20047;-38
2022/07/24 01:06:06;;;;;;;0.20;0.20;;;;;;;22.58;54.48;101565.25;5113299;28;20597;-37
2022/07/24 01:08:34;;;;;;;0.10;0.10;;;;;;;22.57;54.42;101572.75;5111957;28;20439;-39
2022/07/24 01:11:02;;;;;;;0.10;0.10;;;;;;;22.57;54.63;101575.53;5097769;28;20046;-37
2022/07/24 01:13:29;;;;;;;0.13;0.13;;;;;;;22.58;54.46;101565.25;5096495;28;20054;-39
2022/07/24 01:15:55;;;;;;;0.10;0.10;;;;;;;22.57;54.39;101560.81;5114004;28;20829;-39
2022/07/24 01:18:20;;;;;;;0.10;0.10;;;;;;;22.57;54.43;101564.44;5111510;28;20048;-39
2022/07/24 01:20:47;;;;;;;0.20;0.20;;;;;;;22.59;54.52;101564.16;5116606;28;20053;-39
2022/07/24 01:23:13;;;;;;;0.10;0.10;;;;;;;22.58;54.46;101566.06;5113515;28;20127;-37
2022/07/24 01:25:39;;;;;;;0.10;0.10;;;;;;;22.57;54.41;101558.88;5080360;28;20074;-37
2022/07/24 01:28:05;;;;;;;0.10;0.10;;;;;;;22.58;54.54;101565.25;5111564;28;20472;-39
2022/07/24 01:30:31;;;;;;;0.10;0.10;;;;;;;22.57;54.53;101563.59;5101682;28;20035;-37
2022/07/24 01:32:58;;;;;;;0.10;0.10;;;;;;;22.57;54.58;101564.44;5119244;28;20079;-38
2022/07/24 01:35:23;;;;;;;0.10;0.10;;;;;;;22.57;54.59;101553.31;5116585;28;20476;-39
2022/07/24 01:37:51;;;;;;;0.10;0.10;;;;;;;22.58;54.67;101554.97;5109744;28;20043;-39
2022/07/24 01:40:16;;;;;;;0.10;0.10;;;;;;;22.58;54.53;101554.16;5113703;28;20079;-39
2022/07/24 01:42:42;;;;;;;0.10;0.10;;;;;;;22.58;54.45;101548.59;5111378;28;20043;-39
2022/07/24 01:45:08;;;;;;;0.10;0.10;;;;;;;22.57;54.61;101545.00;5112306;28;20126;-36
2022/07/24 01:47:34;;;;;;;0.10;0.10;;;;;;;22.58;54.36;101543.03;5094472;28;20126;-37
2022/07/24 01:49:59;;;;;;;0.10;0.10;;;;;;;22.57;54.51;101545.00;5118054;28;20052;-38
2022/07/24 01:52:25;;;;;;;0.10;0.10;;;;;;;22.58;54.22;101543.03;5118838;28;20035;-37
2022/07/24 01:54:52;;;;;;;0.10;0.10;;;;;;;22.58;54.45;101545.81;5119123;28;20473;-39
2022/07/24 01:57:17;;;;;;;0.10;0.10;;;;;;;22.58;54.58;101543.03;5114504;28;20518;-39
2022/07/24 01:59:45;;;;;;;0.10;0.10;;;;;;;22.58;54.50;101537.50;5116556;28;20394;-38
2022/07/24 02:02:13;;;;;;;0.10;0.10;;;;;;;22.58;54.53;101545.81;5115894;28;20322;-39
2022/07/24 02:04:39;;;;;;;0.10;0.10;;;;;;;22.57;54.56;101539.44;5117765;28;20035;-39
2022/07/24 02:07:04;;;;;;;0.10;0.10;;;;;;;22.57;54.56;101539.44;5112489;28;20043;-37
2022/07/24 02:09:30;;;;;;;0.10;0.10;;;;;;;22.58;54.66;101540.28;5113829;28;20071;-37
2022/07/24 02:11:56;;;;;;;0.10;0.10;;;;;;;22.58;54.51;101545.81;5111836;28;20066;-38
2022/07/24 02:14:21;;;;;;;0.10;0.10;;;;;;;22.57;54.48;101536.66;5099326;28;20451;-36
2022/07/24 02:16:47;;;;;;;0.10;0.10;;;;;;;22.57;54.35;101533.88;5113885;28;20054;-38
2022/07/24 02:19:13;;;;;;;0.10;0.10;;;;;;;22.58;54.46;101538.31;5115476;28;20531;-39
2022/07/24 02:21:39;;;;;;;0.10;0.10;;;;;;;22.58;54.43;101537.50;5096636;28;20090;-39
2022/07/24 02:24:05;;;;;;;0.10;0.10;;;;;;;22.57;54.42;101542.22;5098173;28;20047;-38
2022/07/24 02:26:31;;;;;;;0.10;0.10;;;;;;;22.59;54.61;101540.00;5114084;28;20040;-38
2022/07/24 02:28:56;;;;;;;0.10;0.10;;;;;;;22.59;54.59;101533.63;5114871;28;20043;-39
2022/07/24 02:31:22;;;;;;;0.10;0.10;;;;;;;22.59;54.43;101528.06;5114579;28;20045;-41
2022/07/24 02:33:48;;;;;;;0.10;0.10;;;;;;;22.58;54.52;101527.22;5114234;28;20044;-38
2022/07/24 02:36:14;;;;;;;0.10;0.10;;;;;;;22.57;54.55;101522.78;5116479;28;20846;-38
2022/07/24 02:38:40;;;;;;;0.10;0.10;;;;;;;22.58;54.37;101520.84;5117611;28;20474;-39
2022/07/24 02:41:06;;;;;;;0.10;0.10;;;;;;;22.58;54.41;101521.66;5112918;28;20132;-39
2022/07/24 02:43:32;;;;;;;0.10;0.10;;;;;;;22.57;54.52;101527.50;5116378;28;20043;-39
2022/07/24 02:45:57;;;;;;;0.10;0.10;;;;;;;22.58;54.60;101527.22;5114314;28;20058;-39
2022/07/24 02:48:23;;;;;;;0.10;0.10;;;;;;;22.59;54.46;101522.53;5114714;28;20093;-39
2022/07/24 02:50:49;;;;;;;0.10;0.10;;;;;;;22.58;54.46;101524.44;5097936;28;20047;-38
2022/07/24 02:53:15;;;;;;;0.13;0.13;;;;;;;22.57;54.44;101520.00;5116411;28;20126;-38
2022/07/24 02:55:41;;;;;;;0.10;0.10;;;;;;;22.58;54.42;101520.84;5119658;28;20040;-39
2022/07/24 02:58:06;;;;;;;0.10;0.10;;;;;;;22.58;54.42;101523.63;5117527;28;20081;-39
2022/07/24 03:00:32;;;;;;;0.10;0.10;;;;;;;22.57;54.64;101525.56;5114597;28;20062;-39
2022/07/24 03:02:58;;;;;;;0.10;0.10;;;;;;;22.58;54.59;101527.22;5115444;28;20486;-39
2022/07/24 03:05:23;;;;;;;0.10;0.10;;;;;;;22.57;54.58;101517.25;5098594;28;20043;-39
2022/07/24 03:07:49;;;;;;;0.10;0.10;;;;;;;22.57;54.69;101519.19;5120517;28;20047;-39
2022/07/24 03:10:15;;;;;;;0.10;0.10;;;;;;;22.58;54.54;101515.28;5112195;28;20424;-38
2022/07/24 03:12:41;;;;;;;0.10;0.10;;;;;;;22.57;54.44;101514.47;5111603;28;20044;-39
2022/07/24 03:15:08;;;;;;;0.10;0.10;;;;;;;22.57;54.43;101514.47;5112899;28;20083;-36
2022/07/24 03:17:33;;;;;;;0.10;0.10;;;;;;;22.59;54.47;101516.97;5112898;28;20115;-37
2022/07/24 03:19:59;;;;;;;0.10;0.10;;;;;;;22.58;54.54;101512.50;5116766;28;20040;-38
2022/07/24 03:22:25;;;;;;;0.10;0.10;;;;;;;22.57;54.46;101516.41;5097864;28;20040;-40
2022/07/24 03:24:51;;;;;;;0.15;0.15;;;;;;;22.57;54.62;101511.69;5112815;28;20086;-38
2022/07/24 03:27:16;;;;;;;0.10;0.10;;;;;;;22.58;54.62;101512.50;5114164;28;20401;-40
2022/07/24 03:29:42;;;;;;;0.10;0.10;;;;;;;22.57;54.55;101516.41;5094290;28;20044;-39
2022/07/24 03:32:08;;;;;;;0.10;0.10;;;;;;;22.59;54.38;101517.78;5114309;28;20051;-39
2022/07/24 03:34:33;;;;;;;0.10;0.10;;;;;;;22.58;54.42;101510.56;5112240;28;20042;-37
2022/07/24 03:36:59;;;;;;;0.10;0.10;;;;;;;22.56;54.64;101507.25;5115438;28;20035;-39
2022/07/24 03:39:25;;;;;;;0.10;0.10;;;;;;;22.57;54.37;101513.63;5112823;28;20044;-37
2022/07/24 03:41:51;;;;;;;0.10;0.10;;;;;;;22.57;54.61;101520.00;5107460;28;20079;-37
2022/07/24 03:44:16;;;;;;;0.10;0.10;;;;;;;22.58;54.55;101520.84;5111230;28;20047;-37
2022/07/24 03:46:42;;;;;;;0.10;0.10;;;;;;;22.58;54.34;101524.44;5114423;28;20047;-38
2022/07/24 03:49:08;;;;;;;0.10;0.10;;;;;;;22.57;54.53;101516.41;5112040;28;20052;-37
2022/07/24 03:51:35;;;;;;;0.10;0.10;;;;;;;22.57;54.52;101520.00;5116431;28;20046;-38
2022/07/24 03:54:02;;;;;;;0.10;0.10;;;;;;;22.57;54.48;101525.56;5111719;28;20043;-39
2022/07/24 03:56:28;;;;;;;0.10;0.10;;;;;;;22.57;54.38;101525.56;5117309;28;20077;-39
2022/07/24 03:58:57;;;;;;;0.10;0.10;;;;;;;22.58;54.54;101523.63;5112407;28;20522;-38
2022/07/24 04:01:23;;;;;;;0.10;0.10;;;;;;;22.57;54.47;101517.25;5085784;28;20438;-39
2022/07/24 04:03:48;;;;;;;0.10;0.10;;;;;;;22.57;54.59;101522.78;5117360;28;20084;-39
2022/07/24 04:06:15;;;;;;;0.10;0.10;;;;;;;22.57;54.46;101522.78;5117612;28;20043;-39
2022/07/24 04:08:40;;;;;;;0.10;0.10;;;;;;;22.58;54.60;101523.63;5096823;28;20127;-39
2022/07/24 04:11:07;;;;;;;0.10;0.10;;;;;;;22.57;54.08;101520.00;5096070;28;20272;-39
2022/07/24 04:13:33;;;;;;;0.10;0.10;;;;;;;22.58;54.53;101521.66;5092895;28;20081;-39
2022/07/24 04:15:58;;;;;;;0.10;0.10;;;;;;;22.58;54.56;101526.38;5094960;28;20043;-39
2022/07/24 04:18:24;;;;;;;0.10;0.10;;;;;;;22.58;54.55;101524.44;5117434;28;20100;-39
2022/07/24 04:20:51;;;;;;;0.10;0.10;;;;;;;22.57;54.38;101517.25;5119484;28;20078;-39
2022/07/24 04:23:17;;;;;;;0.10;0.10;;;;;;;22.57;54.54;101522.78;5093763;28;20086;-38
2022/07/24 04:25:44;;;;;;;0.10;0.10;;;;;;;22.58;54.53;101526.38;5101314;28;20048;-39
2022/07/24 04:28:10;;;;;;;0.10;0.10;;;;;;;22.57;54.50;101517.25;5094474;28;20047;-39
2022/07/24 04:30:36;;;;;;;0.10;0.10;;;;;;;22.57;54.57;101519.19;5113872;28;20039;-39
2022/07/24 04:33:01;;;;;;;0.10;0.10;;;;;;;22.57;54.52;101521.97;5095069;28;20040;-39
2022/07/24 04:35:27;;;;;;;0.10;0.10;;;;;;;22.57;54.51;101528.34;5096079;28;20087;-39
2022/07/24 04:37:53;;;;;;;0.10;0.10;;;;;;;22.57;54.42;101527.50;5115842;28;20040;-39
2022/07/24 04:40:18;;;;;;;0.10;0.10;;;;;;;22.57;54.47;101522.78;5114660;28;20454;-39
2022/07/24 04:42:44;;;;;;;0.10;0.10;;;;;;;22.57;54.39;101520.00;5095285;28;20043;-39
2022/07/24 04:45:12;;;;;;;0.10;0.10;;;;;;;22.57;54.50;101511.69;5111659;28;20048;-39
2022/07/24 04:47:38;;;;;;;0.10;0.10;;;;;;;22.58;54.39;101518.06;5112288;28;20116;-37
2022/07/24 04:50:07;;;;;;;0.10;0.10;;;;;;;22.58;54.51;101518.06;5099408;28;20056;-39
2022/07/24 04:52:32;;;;;;;0.10;0.10;;;;;;;22.57;54.47;101522.78;5099837;28;20074;-39
2022/07/24 04:54:58;;;;;;;0.10;0.10;;;;;;;22.56;54.46;101518.38;5111814;28;20043;-39
2022/07/24 04:57:24;;;;;;;0.10;0.10;;;;;;;22.57;54.46;101517.25;5114723;28;20044;-39
2022/07/24 04:59:49;;;;;;;0.10;0.10;;;;;;;22.58;54.41;101513.34;5113526;28;20036;-39
2022/07/24 05:02:15;;;;;;;0.10;0.10;;;;;;;22.57;54.46;101511.69;5111641;28;20039;-37
2022/07/24 05:04:41;;;;;;;0.10;0.10;;;;;;;22.57;54.52;101520.00;5112714;28;20036;-39
2022/07/24 05:07:06;;;;;;;0.10;0.10;;;;;;;22.56;54.53;101523.91;5114506;28;20104;-39
2022/07/24 05:09:32;;;;;;;0.10;0.10;;;;;;;22.58;54.33;101531.94;5111188;28;20055;-38
2022/07/24 05:11:58;;;;;;;0.10;0.10;;;;;;;22.58;54.46;101537.50;5117072;28;20040;-39
2022/07/24 05:14:23;;;;;;;0.10;0.10;;;;;;;22.56;54.62;101548.91;5111839;28;20130;-39
2022/07/24 05:16:49;;;;;;;0.10;0.10;;;;;;;22.56;54.49;101548.06;5112047;28;20046;-37
2022/07/24 05:19:15;;;;;;;0.10;0.10;;;;;;;22.57;54.53;101546.94;5112463;28;20048;-39
2022/07/24 05:21:40;;;;;;;0.10;0.10;;;;;;;22.56;54.45;101554.44;5114097;28;20050;-39
2022/07/24 05:24:06;;;;;;;0.10;0.10;;;;;;;22.57;54.50;101552.50;5117533;28;20276;-38
2022/07/24 05:26:32;;;;;;;0.17;0.17;;;;;;;22.56;54.37;101551.69;5117565;28;20047;-39
2022/07/24 05:28:59;;;;;;;0.10;0.10;;;;;;;22.57;54.50;101561.66;5117522;28;20093;-36
2022/07/24 05:31:25;;;;;;;0.10;0.10;;;;;;;22.56;54.47;101562.78;5097087;28;20086;-37
2022/07/24 05:33:51;;;;;;;0.10;0.10;;;;;;;22.57;54.43;101560.81;5117217;28;20039;-37
2022/07/24 05:36:16;;;;;;;0.10;0.10;;;;;;;22.57;54.44;101555.28;5116313;28;20071;-38
2022/07/24 05:38:43;;;;;;;0.10;0.10;;;;;;;22.57;54.51;101569.97;5115575;28;20046;-38
2022/07/24 05:41:10;;;;;;;0.10;0.10;;;;;;;22.57;54.56;101569.16;5116007;28;20059;-37
2022/07/24 05:43:36;;;;;;;0.10;0.10;;;;;;;22.56;54.53;101568.31;5100550;28;20071;-37
2022/07/24 05:46:01;;;;;;;0.10;0.10;;;;;;;22.57;54.45;101580.25;5112011;28;20036;-38
2022/07/24 05:48:27;;;;;;;0.10;0.10;;;;;;;22.56;54.47;101561.94;5118220;28;20039;-38
2022/07/24 05:50:53;;;;;;;0.10;0.10;;;;;;;22.57;54.61;101571.94;5115156;28;20052;-38
2022/07/24 05:53:19;;;;;;;0.10;0.10;;;;;;;22.57;54.52;101569.97;5116304;28;20035;-38
2022/07/24 05:55:44;;;;;;;0.13;0.13;;;;;;;22.56;54.30;101562.78;5115538;28;20051;-38
2022/07/24 05:58:10;;;;;;;0.10;0.10;;;;;;;22.57;54.40;101563.59;5115322;28;20065;-38
2022/07/24 06:00:36;;;;;;;0.13;0.13;;;;;;;22.57;54.51;101560.81;5117933;28;20062;-38
2022/07/24 06:03:01;;;;;;;0.10;0.10;;;;;;;22.56;54.47;101560.00;5114624;28;20088;-37
2022/07/24 06:05:27;;;;;;;0.10;0.10;;;;;;;22.57;54.54;101550.56;5116839;28;20050;-39
2022/07/24 06:07:53;;;;;;;0.10;0.10;;;;;;;22.56;54.50;101551.69;5114873;28;20405;-37
2022/07/24 06:10:18;;;;;;;0.10;0.10;;;;;;;22.57;54.58;101569.97;5113641;28;20116;-37
2022/07/24 06:12:46;;;;;;;0.10;0.10;;;;;;;22.57;54.48;101563.59;5115736;28;20046;-38
2022/07/24 06:15:12;;;;;;;0.10;0.10;;;;;;;22.56;54.41;101559.19;5115075;28;20035;-37
2022/07/24 06:17:38;;;;;;;0.10;0.10;;;;;;;22.57;54.34;101558.06;5111944;28;20051;-37
2022/07/24 06:20:05;;;;;;;0.10;0.10;;;;;;;22.56;54.47;101557.22;5097867;28;20537;-37
2022/07/24 06:22:31;;;;;;;0.10;0.10;;;;;;;22.56;54.40;101551.69;5116410;28;20086;-36
2022/07/24 06:24:56;;;;;;;0.20;0.20;;;;;;;22.57;54.43;101563.59;5117194;28;20051;-37
2022/07/24 06:27:22;;;;;;;0.10;0.10;;;;;;;22.57;54.47;101549.72;5112951;28;20046;-37
2022/07/24 06:29:47;;;;;;;0.10;0.10;;;;;;;22.56;54.48;101560.00;5116122;28;20405;-37
2022/07/24 06:32:13;;;;;;;0.10;0.10;;;;;;;22.56;54.49;101559.19;5119219;28;20073;-39
2022/07/24 06:34:39;;;;;;;0.10;0.10;;;;;;;22.57;54.52;101555.28;5113152;28;20047;-37
2022/07/24 06:37:04;;;;;;;0.10;0.10;;;;;;;22.56;54.54;101559.19;5117862;28;20046;-36
2022/07/24 06:39:30;;;;;;;0.10;0.10;;;;;;;22.56;54.46;101546.13;5115182;28;20132;-38
2022/07/24 06:41:56;;;;;;;0.10;0.10;;;;;;;22.55;54.50;101541.69;5114920;28;20040;-38
2022/07/24 06:44:22;;;;;;;0.10;0.10;;;;;;;22.56;54.54;101545.28;5112939;28;20130;-37
2022/07/24 06:46:48;;;;;;;0.10;0.10;;;;;;;22.57;54.56;101547.78;5115665;28;20517;-40
2022/07/24 06:49:14;;;;;;;0.10;0.10;;;;;;;22.57;54.61;101542.22;5114468;28;20386;-41
2022/07/24 06:51:40;;;;;;;0.10;0.10;;;;;;;22.57;54.48;101545.00;5118161;28;20045;-38
2022/07/24 06:54:05;;;;;;;0.10;0.10;;;;;;;22.56;54.42;101543.34;5113539;28;20104;-39
2022/07/24 06:56:31;;;;;;;0.10;0.10;;;;;;;22.57;54.37;101549.72;5113491;28;20039;-38
2022/07/24 06:58:58;;;;;;;0.10;0.10;;;;;;;22.57;54.39;101542.22;5101100;28;20055;-37
2022/07/24 07:01:25;;;;;;;0.10;0.10;;;;;;;22.57;54.55;101544.16;5116362;28;20086;-37
2022/07/24 07:03:53;;;;;;;0.10;0.10;;;;;;;22.58;54.42;101545.81;5111918;28;20040;-38
2022/07/24 07:06:19;;;;;;;0.10;0.10;;;;;;;22.57;54.45;101541.41;5115367;28;20070;-39
2022/07/24 07:08:45;;;;;;;0.10;0.10;;;;;;;22.56;54.44;101545.28;5111502;28;20076;-38
2022/07/24 07:11:10;;;;;;;0.10;0.10;;;;;;;22.56;54.46;101543.34;5113406;28;20082;-39
2022/07/24 07:13:36;;;;;;;0.10;0.10;;;;;;;22.58;54.37;101551.38;5113394;28;20470;-39
2022/07/24 07:16:02;;;;;;;0.10;0.10;;;;;;;22.57;54.40;101558.06;5113745;28;20446;-39
2022/07/24 07:18:28;;;;;;;0.10;0.10;;;;;;;22.56;54.30;101557.22;5093831;28;20123;-39
2022/07/24 07:20:53;;;;;;;0.10;0.10;;;;;;;22.57;54.44;101564.44;5111543;28;20050;-39
2022/07/24 07:23:21;;;;;;;0.20;0.20;;;;;;;22.56;54.55;101562.78;5116100;28;20055;-39
2022/07/24 07:25:47;;;;;;;0.10;0.10;;;;;;;22.57;54.41;101564.44;5115124;28;20082;-40
2022/07/24 07:28:13;;;;;;;0.10;0.10;;;;;;;22.56;54.46;101560.00;5114014;28;20063;-39
2022/07/24 07:30:39;;;;;;;0.10;0.10;;;;;;;22.56;54.60;101565.56;5116287;28;20043;-38
2022/07/24 07:33:04;;;;;;;0.13;0.13;;;;;;;22.56;54.46;101553.63;5113821;28;20051;-39
2022/07/24 07:35:30;;;;;;;0.10;0.10;;;;;;;22.57;54.74;101561.66;5116268;28;20454;-38
2022/07/24 07:37:56;;;;;;;0.10;0.10;;;;;;;22.57;54.43;101560.81;5110720;28;20039;-39
2022/07/24 07:40:22;;;;;;;0.10;0.10;;;;;;;22.57;54.53;101561.66;5113056;28;20545;-39
2022/07/24 07:42:48;;;;;;;0.10;0.10;;;;;;;22.56;54.50;101559.19;5113394;28;20078;-39
2022/07/24 07:45:13;;;;;;;0.10;0.10;;;;;;;22.57;54.52;101564.44;5111241;28;20052;-39
2022/07/24 07:47:39;;;;;;;0.10;0.10;;;;;;;22.55;54.44;101550.03;5120305;28;20483;-37
2022/07/24 07:50:05;;;;;;;0.10;0.10;;;;;;;22.56;54.61;101560.00;5112667;28;20537;-38
2022/07/24 07:52:31;;;;;;;0.10;0.10;;;;;;;22.56;54.43;101548.91;5115388;28;20047;-39
2022/07/24 07:54:57;;;;;;;0.10;0.10;;;;;;;22.56;54.54;101560.00;5114978;28;20202;-39
2022/07/24 07:57:23;;;;;;;0.10;0.10;;;;;;;22.57;54.54;101555.28;5113667;28;20040;-40
2022/07/24 08:00:10;;;;;;;0.10;0.10;;;;;;;22.58;54.44;101551.38;5100788;28;20047;-39
2022/07/24 08:02:35;;;;;;;0.10;0.10;;;;;;;22.56;54.46;101554.44;5115338;28;20087;-37
2022/07/24 08:05:01;;;;;;;0.10;0.10;;;;;;;22.56;54.53;101548.06;5112245;28;20044;-38
2022/07/24 08:07:27;;;;;;;0.10;0.10;;;;;;;22.56;54.50;101545.28;5118571;28;20043;-39
2022/07/24 08:09:52;;;;;;;0.10;0.10;;;;;;;22.57;54.42;101544.16;5111637;28;20054;-37
2022/07/24 08:12:18;;;;;;;0.10;0.10;;;;;;;22.57;54.55;101547.78;5112383;28;20073;-39
2022/07/24 08:14:44;;;;;;;0.10;0.10;;;;;;;22.58;54.51;101540.28;5112422;28;20062;-38
2022/07/24 08:17:09;;;;;;;0.10;0.10;;;;;;;22.56;54.46;101546.13;5118170;28;20076;-38
2022/07/24 08:19:35;;;;;;;0.10;0.10;;;;;;;22.56;54.51;101537.78;5114528;28;20048;-39
2022/07/24 08:22:01;;;;;;;0.10;0.10;;;;;;;22.56;54.36;101532.25;5115001;28;20043;-37
2022/07/24 08:24:27;;;;;;;0.10;0.10;;;;;;;22.57;54.48;101533.06;5114400;28;20055;-39
2022/07/24 08:26:52;;;;;;;0.10;0.10;;;;;;;22.56;54.54;101529.47;5113154;28;20043;-39
2022/07/24 08:29:18;;;;;;;0.10;0.10;;;;;;;22.56;54.51;101535.03;5111404;28;20130;-39
2022/07/24 08:31:43;;;;;;;0.10;0.10;;;;;;;22.57;54.52;101538.63;5111441;28;20063;-39
2022/07/24 08:34:09;;;;;;;0.10;0.10;;;;;;;22.58;54.36;101545.81;5113017;28;20039;-39
2022/07/24 08:36:35;;;;;;;0.10;0.10;;;;;;;22.57;54.81;101544.16;5094543;28;20051;-39
2022/07/24 08:39:02;;;;;;;0.10;0.10;;;;;;;22.56;54.40;101536.97;5114737;28;20036;-39
2022/07/24 08:41:35;;;;;;;0.10;0.10;;;;;;;22.56;54.43;101520.31;5100641;28;20379;-37
2022/07/24 08:44:03;;;;;;;0.10;0.10;;;;;;;22.57;54.52;101524.75;5105920;28;20473;-39
2022/07/24 08:46:28;;;;;;;0.20;0.20;;;;;;;22.57;54.43;101527.50;5100001;28;20126;-40
2022/07/24 08:48:54;;;;;;;0.10;0.10;;;;;;;22.56;54.54;101517.53;5104517;28;20096;-37
2022/07/24 08:51:21;;;;;;;0.20;0.20;;;;;;;22.57;54.46;101525.56;5117670;28;20079;-39
2022/07/24 08:53:49;;;;;;;0.10;0.10;;;;;;;22.56;54.44;101521.13;5114351;28;20075;-37
2022/07/24 08:56:16;;;;;;;0.10;0.10;;;;;;;22.57;54.55;101525.56;5113900;27;20082;-37
2022/07/24 08:58:41;;;;;;;0.10;0.10;;;;;;;22.57;54.38;101519.19;5116369;28;20078;-39
2022/07/24 09:01:08;;;;;;;0.10;0.10;;;;;;;22.56;54.44;101512.81;5118576;28;20043;-38
2022/07/24 09:03:40;;;;;;;0.10;0.10;;;;;;;22.56;54.35;101510.03;5097364;28;21302;-36
2022/07/24 09:06:07;;;;;;;0.10;0.10;;;;;;;22.56;54.46;101510.03;5120560;28;20042;-38
2022/07/24 09:08:33;;;;;;;0.10;0.10;;;;;;;22.56;54.37;101507.25;5116357;28;20393;-39
2022/07/24 09:11:04;;;;;;;0.10;0.10;;;;;;;22.57;54.47;101505.31;5113343;28;20101;-39
2022/07/24 09:14:29;;;;;;;0.10;0.10;;;;;;;22.56;54.51;101501.72;5097664;28;20326;-36
2022/07/24 09:16:22;;;;;;;0.10;0.10;;;;;;;22.56;54.35;101498.94;5101977;28;20074;-38
2022/07/24 09:18:50;;;;;;;0.10;0.10;;;;;;;22.56;54.50;101498.94;5099644;28;20740;-39
2022/07/24 09:21:18;;;;;;;0.10;0.10;;;;;;;22.57;54.39;101488.66;5098754;28;20313;-39
2022/07/24 09:23:44;;;;;;;0.10;0.10;;;;;;;22.57;54.51;101488.66;5119367;28;20102;-39
2022/07/24 09:26:10;;;;;;;0.10;0.10;;;;;;;22.57;54.40;101491.44;5116575;28;20071;-39
2022/07/24 09:28:53;;;;;;;0.10;0.10;;;;;;;22.57;54.45;101481.16;5097014;28;20043;-39
2022/07/24 09:31:21;;;;;;;0.10;0.10;;;;;;;22.57;54.56;101480.31;5117367;28;20108;-37
2022/07/24 09:33:47;;;;;;;0.10;0.10;;;;;;;22.57;54.41;101478.38;5096253;28;20040;-39
2022/07/24 09:36:14;;;;;;;0.10;0.10;;;;;;;22.57;54.40;101466.44;5115740;28;20133;-39
2022/07/24 09:38:46;;;;;;;0.10;0.10;;;;;;;22.56;54.42;101479.50;5099572;28;20071;-35
2022/07/24 09:41:11;;;;;;;0.10;0.10;;;;;;;22.57;54.44;101480.31;5098194;28;20088;-37
2022/07/24 09:43:38;;;;;;;0.10;0.10;;;;;;;22.56;54.49;101475.91;5117902;28;20040;-37
2022/07/24 09:46:08;;;;;;;0.10;0.10;;;;;;;22.57;54.53;101480.31;5116455;28;20286;-37
2022/07/24 09:48:40;;;;;;;0.10;0.10;;;;;;;22.57;54.36;101474.78;5117450;28;20039;-38
2022/07/24 09:51:12;;;;;;;0.10;0.10;;;;;;;22.56;54.40;101473.94;5115344;28;20054;-39
2022/07/24 09:53:38;;;;;;;0.10;0.10;;;;;;;22.57;54.42;101472.00;5113620;28;20470;-37
2022/07/24 09:56:16;;;;;;;0.10;0.10;;;;;;;22.58;54.46;101476.41;5098415;28;20496;-38
2022/07/24 10:01:26;;;;;;;0.10;0.10;;;;;;;22.57;54.45;101463.66;5167597;27;20206;-38
2022/07/24 10:03:55;;;;;;;0.10;0.10;;;;;;;22.56;54.35;101457.28;5144409;27;20370;-39
2022/07/24 10:06:25;;;;;;;0.10;0.10;;;;;;;22.56;54.39;101453.69;5129298;27;20070;-38
2022/07/24 10:08:52;;;;;;;0.10;0.10;;;;;;;22.57;54.44;101458.13;5166776;27;20041;-39
2022/07/24 10:11:19;;;;;;;0.10;0.10;;;;;;;22.56;54.47;101448.97;5129246;27;20112;-39
2022/07/24 10:13:45;;;;;;;0.10;0.10;;;;;;;22.57;54.50;101449.78;5167578;27;20129;-39
2022/07/24 10:18:56;;;;;;;0.10;0.10;;;;;;;22.56;54.64;101450.91;5180631;27;20151;-39
2022/07/24 10:21:28;;;;;;;0.10;0.10;;;;;;;22.56;54.44;101451.75;5147503;27;20085;-39
2022/07/24 10:26:47;;;;;;;0.10;0.10;;;;;;;22.56;54.46;101445.38;5179052;27;20111;-39
2022/07/24 10:29:15;;;;;;;0.10;0.10;;;;;;;22.56;54.44;101446.19;5132859;27;20070;-39
2022/07/24 10:31:43;;;;;;;0.10;0.10;;;;;;;22.56;54.38;101435.09;5146594;27;20123;-39
2022/07/24 10:34:30;;;;;;;0.10;0.10;;;;;;;22.57;54.48;101444.25;5166509;27;20066;-39
2022/07/24 10:37:23;;;;;;;0.10;0.10;;;;;;;22.58;54.57;101435.59;5148697;27;20482;-37
2022/07/24 10:40:11;;;;;;;0.10;0.10;;;;;;;22.57;54.59;101436.72;5134794;27;20077;-37
2022/07/24 10:43:08;;;;;;;0.10;0.10;;;;;;;22.57;54.52;101438.69;5153047;27;20049;-36
2022/07/24 10:45:35;;;;;;;0.10;0.10;;;;;;;22.58;54.48;101440.34;5153187;27;20046;-39
2022/07/24 10:58:56;;;;;;;0.10;0.10;;;;;;;22.58;54.39;101418.13;5176121;27;20201;-39
2022/07/24 11:01:48;;;;;;;0.10;0.10;;;;;;;22.57;54.45;101413.69;5154479;27;20045;-37
2022/07/24 11:04:26;;;;;;;0.10;0.10;;;;;;;22.56;54.38;101407.34;5136249;27;20046;-39
2022/07/24 11:06:56;;;;;;;0.20;0.20;;;;;;;22.57;54.43;101410.94;5135568;27;20091;-39
2022/07/24 11:09:23;;;;;;;0.10;0.10;;;;;;;22.57;54.38;101399.81;5118216;27;20082;-39
2022/07/24 11:17:39;;;;;;;0.10;0.10;;;;;;;22.56;54.44;101404.56;5178042;27;20203;-39
2022/07/24 11:20:07;;;;;;;0.10;0.10;;;;;;;22.56;54.41;101400.94;5151990;27;20074;-39
2022/07/24 11:22:42;;;;;;;;;;;;;;;22.57;54.41;101395.09;5167734;27;20070;-37
2022/07/24 11:25:09;;;;;;;0.10;0.10;;;;;;;22.56;54.48;101392.63;5168957;27;19965;-37
2022/07/24 11:28:03;;;;;;;0.10;0.10;;;;;;;22.56;54.43;101395.41;5167353;27;20428;-37
2022/07/24 11:30:30;;;;;;;0.10;0.10;;;;;;;22.57;54.48;101383.16;5137784;27;20090;-37
2022/07/24 11:32:57;;;;;;;0.10;0.10;;;;;;;22.57;54.44;101383.16;5167970;27;20121;-39
2022/07/24 11:35:27;;;;;;;0.10;0.10;;;;;;;22.58;54.41;101385.66;5167382;27;20081;-35
2022/07/24 11:37:53;;;;;;;0.10;0.10;;;;;;;22.58;54.53;101385.66;5148966;27;20077;-37
2022/07/24 11:40:20;;;;;;;0.10;0.10;;;;;;;22.58;54.44;101377.31;5167079;27;20077;-37
2022/07/24 11:42:46;;;;;;;0.10;0.10;;;;;;;22.57;54.59;101372.91;5163887;27;20089;-37
2022/07/24 11:45:12;;;;;;;0.10;0.10;;;;;;;22.56;54.39;101368.47;5161865;27;20047;-38
2022/07/24 11:47:37;;;;;;;0.10;0.10;;;;;;;22.57;54.42;101372.91;5132672;27;20042;-38